Aviation Digital Data Service (ADDS)

Output produced by TAFs form (1719 UTC 21 November 2017)
found at http://aviationweather.gov/adds/tafs/
 
KASE 211125Z 2112/2212 16006KT P6SM VCSH OVC035 
     TEMPO 2112/2114 3SM -SN BR OVC025 
     FM211400 22004KT 6SM -SN BKN020 OVC035 
     FM211700 30004KT P6SM VCSH SCT030 BKN040 
     FM212000 35009KT P6SM SCT060 BKN110 
     FM212200 19004KT P6SM FEW130 SCT150